createdAt,value
2022-08-18T00:01:14.806Z,65.27
2022-08-18T00:03:56.431Z,69.37
2022-08-18T00:06:30.015Z,61.27
2022-08-18T00:08:58.533Z,67.57
2022-08-18T00:11:25.325Z,67.77
2022-08-18T00:13:52.078Z,66.10
2022-08-18T00:16:18.568Z,70.30
2022-08-18T00:18:45.116Z,67.40
2022-08-18T00:21:11.674Z,65.60
2022-08-18T00:23:38.724Z,66.97
2022-08-18T00:26:05.498Z,65.57
2022-08-18T00:28:32.011Z,66.10
2022-08-18T00:30:58.495Z,65.00
2022-08-18T00:33:25.517Z,65.40
2022-08-18T00:35:52.111Z,66.60
2022-08-18T00:38:24.846Z,67.23
2022-08-18T00:40:55.360Z,67.70
2022-08-18T00:43:29.804Z,68.03
2022-08-18T00:45:56.463Z,65.70
2022-08-18T00:48:24.282Z,67.03
2022-08-18T00:51:03.382Z,70.90
2022-08-18T00:53:35.981Z,66.10
2022-08-18T00:56:08.741Z,68.30
2022-08-18T00:58:42.473Z,64.90
2022-08-18T01:01:09.959Z,67.60
2022-08-18T01:03:40.010Z,61.10
2022-08-18T01:06:12.485Z,63.10
2022-08-18T01:08:41.062Z,64.20
2022-08-18T01:11:10.468Z,63.20
2022-08-18T01:13:38.723Z,63.37
2022-08-18T01:16:25.719Z,63.87
2022-08-18T01:19:11.252Z,60.47
2022-08-18T01:21:50.878Z,63.83
2022-08-18T01:24:22.391Z,64.73
2022-08-18T01:26:51.873Z,67.80
2022-08-18T01:29:19.617Z,65.23
2022-08-18T01:31:56.088Z,68.30
2022-08-18T01:34:25.475Z,65.20
2022-08-18T01:36:52.509Z,68.00
2022-08-18T01:40:59.788Z,68.60
2022-08-18T01:42:06.987Z,64.07
2022-08-18T01:44:34.005Z,65.30
2022-08-18T01:47:00.695Z,64.97
2022-08-18T01:49:28.789Z,62.03
2022-08-18T01:51:55.721Z,63.83
2022-08-18T01:54:22.348Z,63.63
2022-08-18T01:56:49.411Z,65.97
2022-08-18T01:59:16.155Z,67.50
2022-08-18T02:01:50.415Z,65.70
2022-08-18T02:04:34.927Z,65.30
2022-08-18T02:07:09.238Z,61.33
2022-08-18T02:09:37.904Z,62.30
2022-08-18T02:12:05.897Z,60.57
2022-08-18T02:14:33.113Z,65.20
2022-08-18T02:17:02.687Z,63.33
2022-08-18T02:19:38.598Z,61.47
2022-08-18T02:22:06.547Z,59.40
2022-08-18T02:24:33.389Z,58.70
2022-08-18T02:26:59.904Z,59.27
2022-08-18T02:29:26.589Z,56.63
2022-08-18T02:31:53.191Z,59.20
2022-08-18T02:34:19.727Z,63.83
2022-08-18T02:36:46.376Z,59.77
2022-08-18T02:39:13.261Z,61.73
2022-08-18T02:41:40.068Z,61.80
2022-08-18T02:44:08.499Z,63.73
2022-08-18T02:46:35.440Z,63.57
2022-08-18T02:49:02.614Z,60.50
2022-08-18T02:51:29.122Z,61.43
2022-08-18T02:53:58.997Z,60.73
2022-08-18T02:56:39.981Z,62.77
2022-08-18T02:59:11.125Z,64.57
2022-08-18T03:01:40.947Z,62.80
2022-08-18T03:04:09.720Z,57.60
2022-08-18T03:06:38.004Z,62.90
2022-08-18T03:09:06.247Z,61.33
2022-08-18T03:11:32.815Z,56.50
2022-08-18T03:14:00.468Z,58.97
2022-08-18T03:16:27.686Z,61.97
2022-08-18T03:18:54.429Z,59.27
2022-08-18T03:21:24.943Z,57.90
2022-08-18T03:24:01.207Z,57.90
2022-08-18T03:26:30.321Z,56.07
2022-08-18T03:28:58.383Z,59.23
2022-08-18T03:31:27.955Z,59.27
2022-08-18T03:33:57.165Z,59.77
2022-08-18T03:36:29.465Z,57.37
2022-08-18T03:38:56.951Z,54.43
2022-08-18T03:41:57.495Z,57.77
2022-08-18T03:44:14.826Z,56.70
2022-08-18T03:46:43.044Z,56.03
2022-08-18T03:49:09.742Z,56.60
2022-08-18T03:51:37.016Z,55.93
2022-08-18T03:54:04.669Z,58.30
2022-08-18T03:56:38.231Z,58.93
2022-08-18T03:59:15.409Z,55.50
2022-08-18T04:01:42.735Z,58.17
2022-08-18T04:04:11.999Z,56.20
2022-08-18T04:06:51.235Z,57.20
2022-08-18T04:09:22.386Z,57.23
2022-08-18T04:11:49.622Z,55.70
2022-08-18T04:14:21.661Z,51.80
2022-08-18T04:16:49.193Z,56.67
2022-08-18T04:19:22.737Z,56.03
2022-08-18T04:21:54.872Z,53.67
2022-08-18T04:24:21.457Z,59.03
2022-08-18T04:26:49.041Z,62.13
2022-08-18T04:29:18.155Z,62.47
2022-08-18T04:31:45.393Z,58.60
2022-08-18T04:34:12.449Z,58.43
2022-08-18T04:36:39.833Z,58.73
2022-08-18T04:39:07.866Z,59.90
2022-08-18T04:41:35.415Z,60.90
2022-08-18T04:44:04.479Z,64.50
2022-08-18T04:46:36.127Z,64.00
2022-08-18T04:49:03.805Z,64.60
2022-08-18T04:52:34.400Z,60.77
2022-08-18T04:54:17.422Z,60.53
2022-08-18T04:56:43.910Z,60.87
2022-08-18T04:59:12.705Z,57.73
2022-08-18T05:01:45.710Z,58.80
2022-08-18T05:04:14.247Z,61.60
2022-08-18T05:06:43.364Z,58.73
2022-08-18T05:09:11.499Z,61.17
2022-08-18T05:11:38.962Z,64.20
2022-08-18T05:14:07.629Z,54.37
2022-08-18T05:16:36.552Z,65.07
2022-08-18T05:19:22.229Z,58.17
2022-08-18T05:21:59.525Z,64.40
2022-08-18T05:24:33.535Z,61.70
2022-08-18T05:27:03.598Z,61.80
2022-08-18T05:29:37.754Z,63.33
2022-08-18T05:32:12.062Z,60.00
2022-08-18T05:35:00.557Z,60.83
2022-08-18T05:37:35.568Z,62.07
2022-08-18T05:40:10.360Z,62.10
2022-08-18T05:42:39.445Z,64.43
2022-08-18T05:45:12.356Z,62.80
2022-08-18T05:47:39.219Z,64.40
2022-08-18T05:50:09.440Z,67.40
2022-08-18T05:52:57.437Z,63.27
2022-08-18T05:55:50.172Z,60.10
2022-08-18T05:58:44.571Z,64.73
2022-08-18T06:01:18.867Z,64.23
2022-08-18T06:03:49.886Z,65.00
2022-08-18T06:06:24.245Z,66.20
2022-08-18T06:09:14.084Z,67.30
2022-08-18T06:11:41.504Z,64.97
2022-08-18T06:14:08.220Z,67.87
2022-08-18T06:16:49.948Z,66.23
2022-08-18T06:19:31.687Z,70.17
2022-08-18T06:22:10.328Z,67.60
2022-08-18T06:25:01.673Z,73.80
2022-08-18T06:27:47.558Z,68.80
2022-08-18T06:30:19.945Z,72.60
2022-08-18T06:33:08.767Z,70.53
2022-08-18T06:35:46.520Z,74.50
2022-08-18T06:38:40.535Z,74.47
2022-08-18T06:41:42.013Z,70.57
2022-08-18T06:44:03.527Z,73.47
2022-08-18T06:46:44.020Z,72.50
2022-08-18T06:49:29.429Z,71.30
2022-08-18T06:51:55.963Z,73.30
2022-08-18T06:54:22.600Z,70.00
2022-08-18T06:56:51.723Z,75.83
2022-08-18T06:59:18.503Z,70.57
2022-08-18T07:01:47.580Z,77.00
2022-08-18T07:04:38.271Z,71.90
2022-08-18T07:07:20.850Z,74.57
2022-08-18T07:09:57.716Z,72.90
2022-08-18T07:12:32.571Z,74.40
2022-08-18T07:15:01.654Z,72.57
2022-08-18T07:17:43.507Z,75.00
2022-08-18T07:20:21.476Z,71.10
2022-08-18T07:23:08.256Z,76.97
2022-08-18T07:25:41.300Z,77.37
2022-08-18T07:28:07.963Z,75.47
2022-08-18T07:30:36.877Z,75.47
2022-08-18T07:33:19.830Z,71.63
2022-08-18T07:35:51.736Z,69.37
2022-08-18T07:38:43.176Z,71.67
2022-08-18T07:41:32.197Z,72.43
2022-08-18T07:43:59.414Z,70.27
2022-08-18T07:46:35.576Z,66.10
2022-08-18T07:49:05.419Z,69.13
2022-08-18T07:51:56.976Z,70.43
2022-08-18T07:54:49.304Z,69.07
2022-08-18T07:57:21.984Z,68.60
2022-08-18T08:00:01.747Z,69.47
2022-08-18T08:02:50.131Z,65.10
2022-08-18T08:05:33.033Z,68.30
2022-08-18T08:08:30.839Z,65.70
2022-08-18T08:11:07.225Z,69.37
2022-08-18T08:13:56.152Z,62.47
2022-08-18T08:16:36.696Z,68.70
2022-08-18T08:19:59.586Z,71.20
2022-08-18T08:22:37.445Z,66.57
2022-08-18T08:25:28.643Z,62.67
2022-08-18T08:28:29.498Z,68.37
2022-08-18T08:31:33.010Z,67.43
2022-08-18T08:34:06.299Z,70.10
2022-08-18T08:36:39.802Z,68.77
2022-08-18T08:39:15.527Z,68.37
2022-08-18T08:41:53.343Z,69.10
2022-08-18T08:45:00.051Z,68.93
2022-08-18T08:47:29.889Z,68.93
2022-08-18T08:50:08.523Z,62.73
2022-08-18T08:52:42.370Z,63.17
2022-08-18T08:55:18.899Z,65.33
2022-08-18T08:58:08.565Z,62.77
2022-08-18T09:00:35.960Z,62.60
2022-08-18T09:03:30.355Z,59.57
2022-08-18T09:06:20.085Z,57.53
2022-08-18T09:08:46.556Z,59.40
2022-08-18T09:11:21.109Z,56.70
2022-08-18T09:14:25.008Z,57.07
2022-08-18T09:16:59.361Z,59.63
2022-08-18T09:19:31.949Z,58.37
2022-08-18T09:21:58.632Z,59.10
2022-08-18T09:24:41.791Z,58.07
2022-08-18T09:27:48.646Z,62.80
2022-08-18T09:31:08.654Z,61.93
2022-08-18T09:33:40.377Z,56.13
2022-08-18T09:36:25.613Z,54.37
2022-08-18T09:39:18.500Z,54.37
2022-08-18T09:41:59.517Z,55.93
2022-08-18T09:47:30.423Z,54.40
2022-08-18T09:50:01.934Z,54.10
2022-08-18T09:50:37.149Z,56.17
2022-08-18T09:52:33.460Z,55.00
2022-08-18T09:55:26.856Z,53.60
2022-08-18T09:58:22.958Z,48.43
2022-08-18T10:01:19.715Z,51.13
2022-08-18T10:04:14.370Z,51.00
2022-08-18T10:06:42.972Z,50.90
2022-08-18T10:09:44.067Z,51.50
2022-08-18T10:12:23.658Z,50.57
2022-08-18T10:15:12.552Z,48.97
2022-08-18T10:17:54.485Z,50.37
2022-08-18T10:20:42.606Z,49.40
2022-08-18T10:23:09.642Z,48.63
2022-08-18T10:25:41.072Z,48.83
2022-08-18T10:28:50.001Z,48.07
2022-08-18T10:31:18.578Z,49.47
2022-08-18T10:34:16.061Z,46.80
2022-08-18T10:36:44.057Z,43.13
2022-08-18T10:39:14.072Z,47.53
2022-08-18T10:42:07.213Z,47.80
2022-08-18T10:44:45.863Z,44.43
2022-08-18T10:47:25.131Z,46.13
2022-08-18T10:50:05.087Z,46.57
2022-08-18T10:52:54.444Z,47.33
2022-08-18T10:55:49.116Z,44.27
2022-08-18T10:58:35.395Z,42.60
2022-08-18T11:01:14.902Z,43.50
2022-08-18T11:04:32.849Z,41.63
2022-08-18T11:07:30.671Z,41.07
2022-08-18T11:10:27.781Z,43.67
2022-08-18T11:13:09.824Z,39.30
2022-08-18T11:15:52.336Z,39.23
2022-08-18T11:18:42.796Z,41.63
2022-08-18T11:21:42.644Z,41.27
2022-08-18T11:24:16.106Z,40.07
2022-08-18T11:26:52.555Z,38.53
2022-08-18T11:29:40.897Z,37.80
2022-08-18T11:35:24.509Z,38.17
2022-08-18T11:37:56.285Z,37.00
2022-08-18T11:41:08.596Z,37.33
2022-08-18T11:43:40.936Z,38.50
2022-08-18T11:46:39.021Z,35.93
2022-08-18T11:49:33.597Z,38.90
2022-08-18T11:55:23.888Z,37.90
2022-08-18T11:57:58.668Z,35.77
2022-08-18T12:01:02.907Z,35.23
2022-08-18T12:03:44.799Z,36.87
2022-08-18T12:06:19.293Z,39.47
2022-08-18T12:08:57.277Z,40.33
2022-08-18T12:11:52.557Z,37.97
2022-08-18T12:14:30.612Z,38.30
2022-08-18T12:17:00.093Z,36.40
2022-08-18T12:19:30.651Z,34.13
2022-08-18T12:22:00.266Z,40.50
2022-08-18T12:27:22.509Z,37.30
2022-08-18T12:29:53.581Z,37.90
2022-08-18T12:32:55.991Z,38.87
2022-08-18T12:35:11.638Z,38.97
2022-08-18T12:40:29.438Z,41.07
2022-08-18T12:42:56.864Z,42.80
2022-08-18T12:45:26.075Z,38.67
2022-08-18T12:47:54.362Z,43.57
2022-08-18T12:50:20.924Z,40.30
2022-08-18T12:52:58.687Z,39.90
2022-08-18T12:55:43.458Z,39.73
2022-08-18T12:58:11.284Z,38.50
2022-08-18T13:00:39.460Z,34.80
2022-08-18T13:03:07.293Z,37.57
2022-08-18T13:05:37.329Z,37.17
2022-08-18T13:08:05.579Z,33.03
2022-08-18T13:10:42.953Z,35.43
2022-08-18T13:13:14.912Z,34.27
2022-08-18T13:15:55.264Z,34.90
2022-08-18T13:18:28.708Z,37.17
2022-08-18T13:20:58.850Z,35.47
2022-08-18T13:23:27.115Z,33.70
2022-08-18T13:26:01.283Z,34.27
2022-08-18T13:28:30.911Z,32.40
2022-08-18T13:31:05.907Z,32.77
2022-08-18T13:33:35.329Z,33.00
2022-08-18T13:36:20.462Z,34.20
2022-08-18T13:38:52.243Z,34.77
2022-08-18T13:41:23.323Z,35.20
2022-08-18T13:43:51.604Z,29.00
2022-08-18T13:46:24.320Z,33.07
2022-08-18T13:49:03.292Z,36.43
2022-08-18T13:51:30.271Z,40.90
2022-08-18T13:54:17.732Z,39.63
2022-08-18T13:56:51.812Z,36.80
2022-08-18T13:59:21.549Z,40.17
2022-08-18T14:01:51.954Z,39.90
2022-08-18T14:04:20.445Z,37.20
2022-08-18T14:06:56.277Z,37.57
2022-08-18T14:09:27.941Z,35.73
2022-08-18T14:12:28.187Z,33.53
2022-08-18T14:14:57.769Z,29.73
2022-08-18T14:17:25.434Z,26.27
2022-08-18T14:20:15.522Z,24.97
2022-08-18T14:23:12.044Z,22.10
2022-08-18T14:25:57.628Z,23.40
2022-08-18T14:28:27.246Z,25.10
2022-08-18T14:30:54.395Z,21.93
2022-08-18T14:33:34.061Z,19.90
2022-08-18T14:36:10.076Z,19.33
2022-08-18T14:38:38.340Z,18.53
2022-08-18T14:41:07.141Z,16.57
2022-08-18T14:44:11.344Z,15.33
2022-08-18T14:46:23.425Z,14.83
2022-08-18T14:48:57.094Z,13.70
2022-08-18T14:51:27.021Z,13.50
2022-08-18T14:53:54.455Z,11.00
2022-08-18T14:56:22.461Z,12.10
2022-08-18T14:58:51.082Z,11.90
2022-08-18T15:01:18.290Z,10.33
2022-08-18T15:03:44.927Z,10.93
2022-08-18T15:06:17.008Z,10.50
2022-08-18T15:08:49.766Z,10.80
2022-08-18T15:11:17.149Z,10.97
2022-08-18T15:13:45.283Z,12.43
2022-08-18T15:16:13.799Z,10.77
2022-08-18T15:18:42.134Z,11.13
2022-08-18T15:21:35.530Z,11.27
2022-08-18T15:24:23.644Z,15.77
2022-08-18T15:26:56.721Z,11.07
2022-08-18T15:29:30.368Z,10.97
2022-08-18T15:32:05.156Z,9.77
2022-08-18T15:34:33.083Z,10.50
2022-08-18T15:37:14.081Z,9.57
2022-08-18T15:39:41.507Z,10.20
2022-08-18T15:42:12.952Z,8.47
2022-08-18T15:44:40.221Z,9.00
2022-08-18T15:47:11.399Z,8.70
2022-08-18T15:49:38.572Z,8.70
2022-08-18T15:52:05.135Z,8.00
2022-08-18T15:54:31.681Z,8.40
2022-08-18T15:56:58.834Z,7.43
2022-08-18T15:59:34.284Z,7.20
2022-08-18T16:02:11.455Z,6.80
2022-08-18T16:04:40.993Z,7.70
2022-08-18T16:07:07.837Z,7.33
2022-08-18T16:09:36.869Z,7.20
2022-08-18T16:12:04.098Z,6.53
2022-08-18T16:14:31.531Z,6.97
2022-08-18T16:16:58.017Z,8.60
2022-08-18T16:19:25.695Z,7.00
2022-08-18T16:21:55.403Z,7.20
2022-08-18T16:24:23.585Z,7.17
2022-08-18T16:26:51.909Z,7.30
2022-08-18T16:29:19.341Z,6.70
2022-08-18T16:31:46.453Z,5.90
2022-08-18T16:34:13.000Z,6.00
2022-08-18T16:36:39.560Z,6.40
2022-08-18T16:39:06.421Z,7.00
2022-08-18T16:41:33.527Z,7.00
2022-08-18T16:44:00.567Z,6.13
2022-08-18T16:46:28.001Z,5.70
2022-08-18T16:48:56.271Z,7.33
2022-08-18T16:51:25.343Z,5.97
2022-08-18T16:53:53.436Z,5.80
2022-08-18T16:56:26.596Z,6.77
2022-08-18T16:59:12.225Z,6.10
2022-08-18T17:01:57.661Z,6.83
2022-08-18T17:04:28.698Z,7.03
2022-08-18T17:06:56.333Z,5.83
2022-08-18T17:09:23.217Z,5.63
2022-08-18T17:11:51.947Z,6.93
2022-08-18T17:14:24.522Z,6.80
2022-08-18T17:16:54.305Z,6.30
2022-08-18T17:19:23.189Z,6.53
2022-08-18T17:21:49.706Z,6.63
2022-08-18T17:24:28.544Z,6.57
2022-08-18T17:27:26.931Z,10.17
2022-08-18T17:30:07.600Z,7.83
2022-08-18T17:32:51.859Z,6.40
2022-08-18T17:35:35.561Z,6.63
2022-08-18T17:38:22.587Z,6.00
2022-08-18T17:40:52.941Z,7.10
2022-08-18T17:43:25.057Z,6.53
2022-08-18T17:46:01.590Z,7.10
2022-08-18T17:48:32.330Z,7.07
2022-08-18T17:51:22.355Z,7.23
2022-08-18T17:53:49.282Z,6.20
2022-08-18T17:56:21.402Z,6.97
2022-08-18T17:58:56.386Z,5.73
2022-08-18T18:01:25.832Z,5.63
2022-08-18T18:03:53.707Z,5.70
2022-08-18T18:06:35.146Z,6.47
2022-08-18T18:09:07.222Z,6.57
2022-08-18T18:11:43.519Z,6.93
2022-08-18T18:14:47.406Z,6.50
2022-08-18T18:17:20.073Z,6.53
2022-08-18T18:19:51.013Z,6.53
2022-08-18T18:22:24.206Z,6.90
2022-08-18T18:24:57.364Z,6.30
2022-08-18T18:27:38.342Z,6.67
2022-08-18T18:30:08.387Z,6.80
2022-08-18T18:33:00.248Z,6.20
2022-08-18T18:35:27.858Z,6.73
2022-08-18T18:37:57.116Z,6.80
2022-08-18T18:40:29.636Z,7.20
2022-08-18T18:42:58.035Z,7.60
2022-08-18T18:45:29.013Z,7.07
2022-08-18T18:48:06.370Z,6.90
2022-08-18T18:50:53.087Z,6.97
2022-08-18T18:53:41.548Z,6.97
2022-08-18T18:56:34.502Z,6.97
2022-08-18T18:59:40.724Z,6.70
2022-08-18T19:02:57.709Z,5.93
2022-08-18T19:05:39.225Z,6.87
2022-08-18T19:08:07.192Z,6.43
2022-08-18T19:10:44.070Z,7.10
2022-08-18T19:13:32.263Z,7.00
2022-08-18T19:16:24.281Z,6.23
2022-08-18T19:19:37.325Z,6.80
2022-08-18T19:22:04.022Z,7.20
2022-08-18T19:24:35.216Z,6.97
2022-08-18T19:27:04.859Z,7.20
2022-08-18T19:29:38.598Z,7.63
2022-08-18T19:32:15.928Z,7.00
2022-08-18T19:34:51.324Z,7.30
2022-08-18T19:37:27.555Z,6.70
2022-08-18T19:40:30.428Z,6.97
2022-08-18T19:43:26.514Z,9.40
2022-08-18T19:46:01.634Z,6.87
2022-08-18T19:48:43.462Z,6.87
2022-08-18T19:51:14.076Z,6.90
2022-08-18T19:53:55.827Z,7.10
2022-08-18T19:56:54.188Z,6.90
2022-08-18T19:59:50.700Z,6.80
2022-08-18T20:02:25.811Z,6.93
2022-08-18T20:04:57.293Z,7.33
2022-08-18T20:07:29.678Z,7.20
2022-08-18T20:10:01.760Z,11.50
2022-08-18T20:12:48.141Z,7.70
2022-08-18T20:15:18.534Z,7.57
2022-08-18T20:17:57.251Z,6.60
2022-08-18T20:20:44.020Z,6.90
2022-08-18T20:23:34.832Z,7.40
2022-08-18T20:26:01.506Z,7.40
2022-08-18T20:28:37.280Z,6.70
2022-08-18T20:31:06.750Z,7.23
2022-08-18T20:33:43.307Z,6.13
2022-08-18T20:36:33.219Z,7.47
2022-08-18T20:39:00.423Z,7.20
2022-08-18T20:41:40.952Z,6.57
2022-08-18T20:44:29.423Z,6.90
2022-08-18T20:47:23.992Z,6.73
2022-08-18T20:50:15.387Z,7.03
2022-08-18T20:53:07.748Z,7.37
2022-08-18T20:55:56.571Z,6.90
2022-08-18T20:58:27.346Z,7.13
2022-08-18T21:00:57.367Z,7.20
2022-08-18T21:03:38.914Z,7.00
2022-08-18T21:06:06.048Z,6.77
2022-08-18T21:08:35.850Z,6.30
2022-08-18T21:11:19.035Z,7.10
2022-08-18T21:13:45.559Z,7.20
2022-08-18T21:16:40.261Z,6.70
2022-08-18T21:19:25.414Z,7.37
2022-08-18T21:22:02.606Z,6.90
2022-08-18T21:24:35.784Z,7.40
2022-08-18T21:27:35.304Z,7.37
2022-08-18T21:30:15.388Z,6.57
2022-08-18T21:32:44.549Z,7.60
2022-08-18T21:35:26.625Z,7.20
2022-08-18T21:38:01.110Z,6.60
2022-08-18T21:40:41.175Z,7.30
2022-08-18T21:43:09.407Z,7.57
2022-08-18T21:45:53.026Z,7.27
2022-08-18T21:48:22.466Z,7.00
2022-08-18T21:50:51.573Z,6.83
2022-08-18T21:53:29.878Z,7.50
2022-08-18T21:55:57.467Z,7.27
2022-08-18T21:58:40.181Z,8.10
2022-08-18T22:01:10.743Z,7.87
2022-08-18T22:03:48.882Z,7.30
2022-08-18T22:06:24.149Z,7.67
2022-08-18T22:08:57.719Z,7.53
2022-08-18T22:12:01.380Z,7.27
2022-08-18T22:14:54.545Z,8.10
2022-08-18T22:17:34.928Z,8.37
2022-08-18T22:20:35.599Z,7.50
2022-08-18T22:23:23.735Z,8.20
2022-08-18T22:25:50.978Z,7.60
2022-08-18T22:28:24.300Z,8.00
2022-08-18T22:30:53.945Z,7.33
2022-08-18T22:33:20.715Z,6.83
2022-08-18T22:35:56.416Z,7.03
2022-08-18T22:38:25.061Z,6.70
2022-08-18T22:40:52.207Z,8.00
2022-08-18T22:43:18.747Z,7.27
2022-08-18T22:45:45.556Z,6.93
2022-08-18T22:48:12.093Z,8.10
2022-08-18T22:50:38.631Z,7.53
2022-08-18T22:53:05.497Z,7.30
2022-08-18T22:55:32.148Z,7.57
2022-08-18T22:57:58.699Z,7.63
2022-08-18T23:00:27.476Z,6.80
2022-08-18T23:02:55.198Z,7.80
2022-08-18T23:05:22.284Z,6.80
2022-08-18T23:07:49.809Z,7.20
2022-08-18T23:10:16.681Z,8.47
2022-08-18T23:12:44.634Z,9.03
2022-08-18T23:15:11.744Z,9.23
2022-08-18T23:17:40.656Z,9.00
2022-08-18T23:20:12.009Z,9.30
2022-08-18T23:22:42.255Z,9.20
2022-08-18T23:25:09.523Z,10.03
2022-08-18T23:27:36.660Z,10.80
2022-08-18T23:30:05.007Z,9.30
2022-08-18T23:32:31.960Z,9.63
2022-08-18T23:34:59.372Z,10.33
2022-08-18T23:37:25.954Z,10.37
2022-08-18T23:39:52.550Z,11.07
2022-08-18T23:42:19.155Z,9.60
2022-08-18T23:44:49.586Z,11.67
2022-08-18T23:47:18.507Z,10.33
2022-08-18T23:49:45.108Z,10.70
2022-08-18T23:52:11.606Z,11.00
2022-08-18T23:54:39.062Z,10.50
2022-08-18T23:57:05.804Z,11.70
2022-08-18T23:59:32.424Z,12.50
